Time;durP1;ratioP1;P1;durP2;ratioP2;P2;SDS_P1;SDS_P2;PMS_P1;PMS_P2;Temp;Humidity;BMP_temperature;BMP_pressure;BME280_temperature;BME280_humidity;BME280_pressure;Samples;Min_cycle;Max_cycle;Signal;HPM_P1;HPM_P2
2022/07/05 00:01:22;;;;;;;1.85;0.60;;;;;;;26.58;34.10;102309.53;6220147;23;20046;-44
2022/07/05 00:03:51;;;;;;;1.10;0.55;;;;;;;26.60;33.97;102310.47;6220166;23;20095;-42
2022/07/05 00:06:19;;;;;;;1.30;0.50;;;;;;;26.62;33.80;102306.13;6245160;23;20004;-43
2022/07/05 00:08:48;;;;;;;0.60;0.30;;;;;;;26.67;33.99;102308.88;6220180;23;20145;-47
2022/07/05 00:11:16;;;;;;;1.17;0.65;;;;;;;26.64;33.96;102303.56;6246959;23;20004;-42
2022/07/05 00:13:45;;;;;;;1.48;0.50;;;;;;;26.61;33.97;102308.75;6221094;23;20371;-43
2022/07/05 00:16:14;;;;;;;1.13;0.40;;;;;;;26.60;33.92;102310.47;6246873;23;20412;-48
2022/07/05 00:18:42;;;;;;;0.30;0.30;;;;;;;26.52;34.22;102293.63;6219698;23;20012;-43
2022/07/05 00:21:09;;;;;;;0.73;0.38;;;;;;;26.57;33.99;102299.88;6245224;23;20011;-43
2022/07/05 00:23:38;;;;;;;0.70;0.40;;;;;;;26.59;34.00;102295.53;6219640;23;20011;-42
2022/07/05 00:26:07;;;;;;;0.98;0.50;;;;;;;26.61;33.91;102292.94;6220435;23;20000;-43
2022/07/05 00:28:36;;;;;;;0.73;0.60;;;;;;;26.59;34.20;102287.63;6245377;23;20056;-42
2022/07/05 00:31:04;;;;;;;1.33;0.50;;;;;;;26.49;34.08;102277.75;6246762;23;20000;-46
2022/07/05 00:33:32;;;;;;;2.03;0.40;;;;;;;26.51;34.04;102286.59;6219067;23;20011;-51
2022/07/05 00:36:01;;;;;;;0.77;0.50;;;;;;;26.45;34.38;102292.59;6219554;23;20004;-43
2022/07/05 00:38:30;;;;;;;0.95;0.50;;;;;;;26.43;34.10;102288.13;6219592;23;20390;-42
2022/07/05 00:40:58;;;;;;;0.75;0.40;;;;;;;26.42;34.44;102288.97;6244531;23;20015;-43
2022/07/05 00:43:27;;;;;;;2.13;0.63;;;;;;;26.34;34.31;102283.53;6219546;23;20332;-41
2022/07/05 00:45:55;;;;;;;0.50;0.50;;;;;;;26.32;34.37;102286.16;6246264;23;20011;-49
2022/07/05 00:48:22;;;;;;;3.40;0.50;;;;;;;26.33;34.48;102284.41;6219578;23;20004;-42
2022/07/05 00:50:52;;;;;;;1.17;0.50;;;;;;;26.22;34.67;102279.78;6195044;23;20004;-42
2022/07/05 00:53:19;;;;;;;0.82;0.38;;;;;;;26.21;34.53;102291.16;6246757;23;20443;-46
2022/07/05 00:55:48;;;;;;;0.90;0.40;;;;;;;26.29;34.53;102293.09;6245054;23;20004;-42
2022/07/05 00:58:17;;;;;;;0.30;0.28;;;;;;;26.35;34.46;102306.38;6219050;23;20027;-43
2022/07/05 01:00:45;;;;;;;1.25;0.60;;;;;;;26.28;34.55;102300.06;6245829;23;20012;-42
2022/07/05 01:03:14;;;;;;;0.88;0.40;;;;;;;26.34;34.39;102294.06;6245835;23;20011;-42
2022/07/05 01:05:42;;;;;;;1.55;0.40;;;;;;;26.24;34.26;102293.84;6219337;23;20004;-43
2022/07/05 01:08:11;;;;;;;2.15;0.47;;;;;;;26.22;34.41;102285.03;6219675;23;20028;-46
2022/07/05 01:10:40;;;;;;;0.90;0.30;;;;;;;25.94;34.74;102243.97;6194574;23;20492;-43
2022/07/05 01:13:09;;;;;;;0.40;0.30;;;;;;;26.22;34.33;102289.44;6194631;23;20012;-44
2022/07/05 01:15:38;;;;;;;1.35;0.50;;;;;;;26.18;34.60;102295.44;6219346;23;20012;-44
2022/07/05 01:18:07;;;;;;;2.28;0.40;;;;;;;26.14;34.74;102299.75;6219448;23;20008;-43
2022/07/05 01:20:36;;;;;;;1.67;0.60;;;;;;;26.16;34.79;102299.78;6244484;23;20509;-43
2022/07/05 01:23:05;;;;;;;1.20;0.35;;;;;;;26.19;34.64;102306.00;6244682;23;20371;-43
2022/07/05 01:25:33;;;;;;;0.40;0.40;;;;;;;26.11;34.63;102291.78;6219171;23;20082;-43
2022/07/05 01:28:03;;;;;;;0.43;0.22;;;;;;;26.22;34.51;102299.94;6244592;23;20431;-42
2022/07/05 01:30:32;;;;;;;1.27;0.40;;;;;;;26.15;34.79;102300.63;6245619;23;20054;-42
2022/07/05 01:33:01;;;;;;;2.55;0.40;;;;;;;26.09;34.73;102290.81;6246422;23;20000;-48
2022/07/05 01:35:29;;;;;;;3.70;0.60;;;;;;;26.11;34.55;102298.72;6218081;23;20015;-43
2022/07/05 01:37:58;;;;;;;1.25;0.40;;;;;;;26.12;34.63;102295.28;6219446;23;20027;-42
2022/07/05 01:40:26;;;;;;;0.45;0.22;;;;;;;26.11;34.81;102296.09;6218410;23;20004;-43
2022/07/05 01:42:55;;;;;;;2.50;0.50;;;;;;;26.07;34.60;102292.50;6245106;23;20004;-42
2022/07/05 01:45:42;;;;;;;2.28;0.47;;;;;;;26.10;34.56;102300.50;6246317;23;20340;-43
2022/07/05 01:48:13;;;;;;;2.10;0.32;;;;;;;26.05;34.45;102295.13;6223530;23;20008;-43
2022/07/05 01:50:53;;;;;;;1.15;0.20;;;;;;;26.04;34.73;102290.72;6218982;23;20039;-45
2022/07/05 01:53:24;;;;;;;1.23;0.50;;;;;;;26.04;34.62;102297.69;6219117;23;20007;-52
2022/07/05 01:55:53;;;;;;;0.85;0.30;;;;;;;26.03;34.71;102302.06;6246069;23;20007;-45
2022/07/05 01:58:21;;;;;;;2.97;0.45;;;;;;;25.97;34.42;102288.75;6218531;23;20023;-45
2022/07/05 02:00:52;;;;;;;1.65;0.45;;;;;;;25.96;34.72;102304.50;6246108;23;20083;-43
2022/07/05 02:03:20;;;;;;;0.98;0.57;;;;;;;25.94;34.85;102299.19;6245825;23;20004;-53
2022/07/05 02:05:49;;;;;;;0.77;0.40;;;;;;;25.92;34.63;102296.53;6245476;23;20072;-45
2022/07/05 02:08:18;;;;;;;0.52;0.30;;;;;;;25.96;34.59;102300.13;6245042;23;20004;-47
2022/07/05 02:10:46;;;;;;;2.08;0.30;;;;;;;25.98;34.70;102298.44;6245274;23;20061;-53
2022/07/05 02:13:15;;;;;;;0.90;0.30;;;;;;;25.94;34.54;102300.09;6245201;23;20001;-46
2022/07/05 02:15:43;;;;;;;0.50;0.30;;;;;;;25.96;34.53;102299.25;6245351;23;20038;-45
2022/07/05 02:18:12;;;;;;;0.93;0.43;;;;;;;25.90;34.32;102292.97;6245189;23;20305;-45
2022/07/05 02:20:41;;;;;;;1.20;0.50;;;;;;;25.89;34.47;102300.84;6245344;23;20008;-50
2022/07/05 02:23:09;;;;;;;2.45;0.65;;;;;;;25.87;34.77;102302.53;6218054;23;20317;-44
2022/07/05 02:25:38;;;;;;;0.40;0.20;;;;;;;25.81;34.55;102292.75;6245258;23;20077;-44
2022/07/05 02:28:06;;;;;;;1.10;0.30;;;;;;;25.75;34.54;102290.81;6245329;23;20001;-45
2022/07/05 02:30:34;;;;;;;2.38;0.38;;;;;;;25.82;34.74;102285.75;6246480;23;20004;-43
2022/07/05 02:33:02;;;;;;;0.93;0.28;;;;;;;25.81;34.69;102282.25;6195437;23;20010;-50
2022/07/05 02:35:33;;;;;;;0.68;0.30;;;;;;;25.74;34.42;102283.78;6220812;23;20045;-44
2022/07/05 02:38:01;;;;;;;3.50;0.40;;;;;;;25.71;34.58;102283.72;6247373;23;20039;-44
2022/07/05 02:40:29;;;;;;;0.60;0.20;;;;;;;25.75;34.49;102292.56;6247166;23;20007;-45
2022/07/05 02:42:58;;;;;;;1.73;0.30;;;;;;;25.74;34.62;102296.06;6247373;23;20000;-43
2022/07/05 02:45:26;;;;;;;1.60;0.30;;;;;;;25.72;34.59;102295.13;6247367;23;20004;-45
2022/07/05 02:47:55;;;;;;;0.55;0.30;;;;;;;25.71;34.82;102295.97;6246832;23;20452;-46
2022/07/05 02:50:23;;;;;;;0.93;0.32;;;;;;;25.69;34.70;102295.03;6247163;23;20008;-50
2022/07/05 02:52:52;;;;;;;0.98;0.20;;;;;;;25.68;34.59;102298.50;6247001;23;20387;-45
2022/07/05 02:55:20;;;;;;;1.08;0.30;;;;;;;25.66;34.78;102297.56;6246933;23;20004;-47
2022/07/05 02:57:49;;;;;;;1.08;0.40;;;;;;;25.53;34.84;102284.09;6246492;23;20497;-45
2022/07/05 03:00:18;;;;;;;0.30;0.25;;;;;;;25.61;34.45;102298.38;6247089;23;20015;-46
2022/07/05 03:02:46;;;;;;;0.30;0.28;;;;;;;25.62;34.55;102294.88;6246615;23;20004;-48
2022/07/05 03:05:15;;;;;;;0.20;0.20;;;;;;;25.59;34.99;102294.81;6247029;23;19996;-44
2022/07/05 03:07:43;;;;;;;0.43;0.20;;;;;;;25.61;34.67;102303.63;6246745;23;20420;-54
2022/07/05 03:10:12;;;;;;;0.22;0.20;;;;;;;25.57;34.64;102291.22;6247136;23;20039;-44
2022/07/05 03:12:41;;;;;;;3.13;0.50;;;;;;;25.54;34.71;102299.03;6246934;23;20420;-51
2022/07/05 03:15:09;;;;;;;0.25;0.20;;;;;;;25.54;34.95;102298.16;6246856;23;20000;-44
2022/07/05 03:17:38;;;;;;;0.28;0.20;;;;;;;25.51;34.68;102292.81;6247035;23;20075;-46
2022/07/05 03:20:07;;;;;;;0.22;0.20;;;;;;;25.48;35.01;102284.00;6247147;23;20004;-48
2022/07/05 03:22:35;;;;;;;1.65;0.40;;;;;;;25.51;34.68;102288.44;6246582;23;20000;-44
2022/07/05 03:25:04;;;;;;;0.85;0.47;;;;;;;25.59;34.26;102294.81;6220052;23;20015;-53
2022/07/05 03:27:33;;;;;;;0.20;0.10;;;;;;;25.56;34.64;102292.09;6246395;23;20027;-52
2022/07/05 03:30:01;;;;;;;0.63;0.30;;;;;;;25.55;34.58;102290.31;6219949;23;20047;-52
2022/07/05 03:32:30;;;;;;;0.10;0.10;;;;;;;25.54;34.58;102292.91;6246648;23;20008;-45
2022/07/05 03:34:59;;;;;;;0.25;0.20;;;;;;;25.50;34.74;102296.28;6220050;23;20094;-43
2022/07/05 03:37:26;;;;;;;0.47;0.30;;;;;;;25.48;34.63;102298.88;6220334;23;20348;-44
2022/07/05 03:39:54;;;;;;;0.57;0.20;;;;;;;25.50;34.24;102299.78;6247208;23;20000;-43
2022/07/05 03:42:23;;;;;;;0.40;0.20;;;;;;;25.50;34.44;102291.91;6246528;23;20050;-44
2022/07/05 03:44:52;;;;;;;1.95;0.30;;;;;;;25.49;34.25;102305.88;6245835;23;20456;-45
2022/07/05 03:47:21;;;;;;;2.15;0.30;;;;;;;25.43;34.52;102301.34;6246475;23;20004;-45
2022/07/05 03:49:50;;;;;;;1.63;0.30;;;;;;;25.41;34.62;102307.38;6246704;23;20031;-45
2022/07/05 03:52:18;;;;;;;0.57;0.40;;;;;;;25.42;34.51;102303.94;6246870;23;20062;-45
2022/07/05 03:54:47;;;;;;;0.57;0.20;;;;;;;25.43;34.45;102311.84;6246631;23;20000;-50
2022/07/05 03:57:15;;;;;;;0.10;0.10;;;;;;;25.41;34.39;102304.75;6244975;23;20082;-44
2022/07/05 03:59:44;;;;;;;0.30;0.10;;;;;;;25.40;34.68;102302.97;6245615;23;20016;-53
2022/07/05 04:02:13;;;;;;;0.22;0.20;;;;;;;25.44;34.30;102315.41;6246013;23;20004;-45
2022/07/05 04:04:41;;;;;;;0.13;0.10;;;;;;;25.42;34.53;102314.47;6219767;23;20008;-46
2022/07/05 04:07:09;;;;;;;0.50;0.20;;;;;;;25.41;34.37;102324.03;6246572;23;20087;-43
2022/07/05 04:09:38;;;;;;;0.63;0.30;;;;;;;25.38;34.28;102323.06;6245948;23;20008;-43
2022/07/05 04:12:07;;;;;;;2.92;0.43;;;;;;;25.38;34.37;102328.31;6246318;23;20008;-44
2022/07/05 04:14:36;;;;;;;0.40;0.20;;;;;;;25.34;34.28;102322.97;6246017;23;20004;-43
2022/07/05 04:17:04;;;;;;;0.15;0.15;;;;;;;25.38;34.31;102323.97;6246064;23;20023;-45
2022/07/05 04:19:33;;;;;;;0.13;0.10;;;;;;;25.36;34.34;102336.16;6245709;23;20053;-46
2022/07/05 04:22:01;;;;;;;0.28;0.20;;;;;;;25.29;34.38;102332.47;6218767;23;20007;-44
2022/07/05 04:24:30;;;;;;;1.08;0.30;;;;;;;25.28;34.71;102335.94;6246038;23;20000;-43
2022/07/05 04:26:58;;;;;;;0.30;0.10;;;;;;;25.28;34.50;102333.31;6246329;23;20005;-44
2022/07/05 04:29:26;;;;;;;1.25;0.35;;;;;;;25.25;34.55;102324.44;6246175;23;20403;-45
2022/07/05 04:31:55;;;;;;;0.68;0.28;;;;;;;25.26;34.46;102327.13;6220717;23;20070;-45
2022/07/05 04:34:23;;;;;;;2.17;0.30;;;;;;;25.29;34.45;102331.56;6246481;23;20000;-44
2022/07/05 04:36:50;;;;;;;0.93;0.20;;;;;;;25.30;34.43;102339.50;6245880;23;20008;-51
2022/07/05 04:39:20;;;;;;;0.68;0.30;;;;;;;25.31;34.16;102340.38;6245671;23;20475;-44
2022/07/05 04:41:48;;;;;;;0.68;0.25;;;;;;;25.24;34.46;102335.78;6245661;23;20004;-44
2022/07/05 04:44:17;;;;;;;0.63;0.15;;;;;;;25.20;34.54;102326.06;6245922;23;20080;-44
2022/07/05 04:46:45;;;;;;;0.10;0.10;;;;;;;25.29;34.14;102337.72;6245672;23;20008;-46
2022/07/05 04:49:12;;;;;;;0.25;0.20;;;;;;;25.26;34.15;102340.25;6219194;23;20007;-44
2022/07/05 04:51:41;;;;;;;1.23;0.20;;;;;;;25.18;34.16;102326.91;6245866;23;20004;-43
2022/07/05 04:54:09;;;;;;;0.75;0.20;;;;;;;25.25;34.09;102332.31;6219330;23;20054;-44
2022/07/05 04:56:37;;;;;;;0.30;0.20;;;;;;;25.20;34.25;102326.94;6246118;23;20004;-50
2022/07/05 04:59:05;;;;;;;0.32;0.20;;;;;;;25.22;34.12;102333.13;6245242;23;20016;-49
2022/07/05 05:01:34;;;;;;;0.38;0.20;;;;;;;25.19;34.10;102327.78;6245541;23;20047;-49
2022/07/05 05:04:02;;;;;;;0.65;0.30;;;;;;;25.22;34.09;102327.88;6245542;23;20011;-47
2022/07/05 05:06:30;;;;;;;0.38;0.30;;;;;;;25.17;33.98;102332.09;6245974;23;20458;-43
2022/07/05 05:08:57;;;;;;;0.57;0.28;;;;;;;25.23;34.05;102339.28;6245865;23;20016;-45
2022/07/05 05:11:26;;;;;;;2.05;0.20;;;;;;;25.24;34.11;102339.31;6246147;23;20000;-44
2022/07/05 05:13:54;;;;;;;0.57;0.20;;;;;;;25.09;34.36;102321.34;6245704;23;20011;-46
2022/07/05 05:16:21;;;;;;;0.70;0.20;;;;;;;25.06;34.26;102325.63;6245991;23;20431;-49
2022/07/05 05:18:50;;;;;;;0.47;0.20;;;;;;;25.13;34.49;102349.50;6245461;23;20015;-48
2022/07/05 05:21:18;;;;;;;0.43;0.22;;;;;;;25.20;34.50;102350.56;6245575;23;20008;-45
2022/07/05 05:23:47;;;;;;;0.20;0.20;;;;;;;25.22;34.27;102354.13;6245442;23;20000;-43
2022/07/05 05:26:16;;;;;;;0.20;0.20;;;;;;;25.28;34.36;102363.91;6245541;23;20000;-44
2022/07/05 05:28:45;;;;;;;0.40;0.20;;;;;;;25.33;34.45;102364.97;6245430;23;20424;-46
2022/07/05 05:31:13;;;;;;;0.35;0.20;;;;;;;25.31;34.44;102353.50;6219132;23;20375;-51
2022/07/05 05:33:40;;;;;;;1.35;0.30;;;;;;;25.30;34.74;102357.88;6245564;23;20435;-44
2022/07/05 05:36:09;;;;;;;0.20;0.20;;;;;;;25.29;34.64;102345.59;6245717;23;20428;-50
2022/07/05 05:38:37;;;;;;;0.38;0.20;;;;;;;25.40;34.48;102366.91;6245943;23;20412;-47
2022/07/05 05:41:06;;;;;;;1.27;0.20;;;;;;;25.41;34.58;102367.81;6244083;23;20028;-46
2022/07/05 05:43:34;;;;;;;0.90;0.30;;;;;;;25.44;34.50;102358.31;6245558;23;20004;-47
2022/07/05 05:46:04;;;;;;;0.85;0.20;;;;;;;25.53;34.27;102362.94;6245587;23;20027;-44
2022/07/05 05:48:32;;;;;;;1.23;0.20;;;;;;;25.55;34.32;102363.00;6245559;23;20327;-46
2022/07/05 05:51:00;;;;;;;0.88;0.30;;;;;;;25.63;34.39;102366.72;6245364;23;20004;-50
2022/07/05 05:53:29;;;;;;;0.20;0.10;;;;;;;25.69;34.10;102371.25;6245294;23;20541;-45
2022/07/05 05:55:57;;;;;;;0.10;0.10;;;;;;;25.70;34.07;102368.69;6245418;23;20010;-44
2022/07/05 05:58:26;;;;;;;1.23;0.10;;;;;;;25.76;34.16;102362.69;6245130;23;20146;-49
2022/07/05 06:00:54;;;;;;;0.30;0.20;;;;;;;25.87;34.28;102376.13;6245404;23;20031;-49
2022/07/05 06:03:24;;;;;;;0.45;0.10;;;;;;;25.81;34.35;102365.44;6245372;22;20336;-43
2022/07/05 06:05:52;;;;;;;0.47;0.25;;;;;;;25.96;34.33;102378.13;6248484;23;20012;-47
2022/07/05 06:08:21;;;;;;;0.50;0.30;;;;;;;26.00;34.39;102369.44;6247407;23;20008;-43
2022/07/05 06:10:50;;;;;;;1.00;0.30;;;;;;;26.11;34.08;102375.94;6247448;23;20015;-45
2022/07/05 06:13:18;;;;;;;1.48;0.40;;;;;;;26.16;34.33;102369.03;6247792;23;20004;-45
2022/07/05 06:15:46;;;;;;;2.33;0.47;;;;;;;26.19;34.32;102373.50;6247346;23;20067;-47
2022/07/05 06:18:15;;;;;;;0.68;0.40;;;;;;;26.28;34.27;102373.72;6247596;23;20000;-43
2022/07/05 06:20:43;;;;;;;0.45;0.30;;;;;;;26.28;34.63;102376.34;6247015;23;20015;-43
2022/07/05 06:23:11;;;;;;;1.60;0.55;;;;;;;26.27;34.50;102373.72;6246550;23;20446;-45
2022/07/05 06:25:40;;;;;;;0.75;0.30;;;;;;;26.28;34.84;102383.38;6247325;23;20077;-43
2022/07/05 06:28:09;;;;;;;0.50;0.22;;;;;;;26.33;34.99;102380.00;6220699;23;20003;-45
2022/07/05 06:30:39;;;;;;;2.28;0.50;;;;;;;26.44;34.49;102384.63;6247501;23;20004;-47
2022/07/05 06:33:08;;;;;;;3.17;0.55;;;;;;;26.49;34.42;102383.03;6247635;23;20011;-46
2022/07/05 06:35:37;;;;;;;0.93;0.25;;;;;;;26.53;34.63;102390.16;6247045;23;20011;-44
2022/07/05 06:38:06;;;;;;;2.05;0.30;;;;;;;26.51;34.95;102386.59;6220439;23;20135;-46
2022/07/05 06:40:42;;;;;;;1.80;0.28;;;;;;;26.49;34.93;102386.53;6247186;23;20083;-49
2022/07/05 06:43:14;;;;;;;2.45;0.35;;;;;;;26.59;34.95;102397.31;6247826;23;20000;-53
2022/07/05 06:45:42;;;;;;;0.93;0.35;;;;;;;26.60;35.12;102397.31;6245970;23;20000;-48
2022/07/05 06:48:12;;;;;;;3.05;0.55;;;;;;;26.73;34.62;102398.53;6247021;23;20058;-45
2022/07/05 06:50:41;;;;;;;1.42;0.35;;;;;;;26.76;34.54;102397.69;6247372;23;20031;-51
2022/07/05 06:53:11;;;;;;;0.35;0.15;;;;;;;26.84;34.77;102396.19;6247141;23;20369;-44
2022/07/05 06:55:50;;;;;;;1.75;0.30;;;;;;;26.88;35.01;102394.50;6247380;23;20008;-44
2022/07/05 06:58:17;;;;;;;0.88;0.20;;;;;;;26.91;35.00;102392.81;6246860;23;20000;-44
2022/07/05 07:00:46;;;;;;;1.90;0.43;;;;;;;26.98;34.64;102389.47;6186806;23;20016;-48
2022/07/05 07:03:15;;;;;;;0.60;0.32;;;;;;;27.04;34.83;102401.03;6186694;23;20005;-43
2022/07/05 07:05:43;;;;;;;2.42;0.55;;;;;;;27.06;34.72;102392.28;6185997;23;20005;-45
2022/07/05 07:10:59;;;;;;;1.70;0.45;;;;;;;27.15;34.75;102400.38;6181350;23;20005;-43
2022/07/05 07:13:28;;;;;;;0.75;0.10;;;;;;;27.24;34.86;102401.47;6186747;23;20520;-45
2022/07/05 07:15:56;;;;;;;0.40;0.20;;;;;;;27.24;34.67;102404.09;6186526;23;20013;-45
2022/07/05 07:18:25;;;;;;;0.22;0.20;;;;;;;27.32;34.79;102409.53;6184902;23;20005;-43
2022/07/05 07:20:53;;;;;;;3.13;0.20;;;;;;;27.32;34.98;102399.84;6186779;23;20009;-43
2022/07/05 07:23:22;;;;;;;1.38;0.30;;;;;;;27.40;34.67;102408.84;6186372;23;20390;-49
2022/07/05 07:25:50;;;;;;;0.10;0.10;;;;;;;27.44;34.48;102413.31;6184860;23;20016;-47
2022/07/05 07:28:19;;;;;;;0.22;0.20;;;;;;;27.44;34.91;102410.69;6186589;23;20001;-45
2022/07/05 07:30:47;;;;;;;0.38;0.20;;;;;;;27.51;34.43;102413.47;6186563;23;20088;-47
2022/07/05 07:33:16;;;;;;;0.30;0.20;;;;;;;27.61;34.48;102420.72;6186371;23;20325;-48
2022/07/05 07:35:45;;;;;;;1.13;0.38;;;;;;;27.64;34.47;102417.25;6186441;23;20429;-44
2022/07/05 07:38:13;;;;;;;1.00;0.30;;;;;;;27.68;34.33;102419.97;6186531;23;20092;-43
2022/07/05 07:40:40;;;;;;;0.47;0.17;;;;;;;27.72;34.24;102420.91;6186499;23;20040;-45
2022/07/05 07:43:09;;;;;;;0.52;0.13;;;;;;;27.82;33.90;102417.63;6185873;23;20009;-47
2022/07/05 07:45:37;;;;;;;0.55;0.30;;;;;;;27.83;33.92;102424.69;6185451;23;20079;-43
2022/07/05 07:48:06;;;;;;;0.57;0.20;;;;;;;27.82;33.82;102425.53;6186053;23;20344;-44
2022/07/05 07:50:34;;;;;;;1.13;0.22;;;;;;;27.88;33.53;102424.75;6186083;23;20421;-50
2022/07/05 07:53:03;;;;;;;1.50;0.30;;;;;;;27.87;33.42;102417.69;6185861;23;20001;-43
2022/07/05 07:55:31;;;;;;;1.52;0.43;;;;;;;27.84;33.85;102413.28;6186092;23;20009;-45
2022/07/05 07:57:58;;;;;;;0.32;0.20;;;;;;;27.86;33.17;102410.66;6186200;23;20028;-47
2022/07/05 08:00:26;;;;;;;1.27;0.30;;;;;;;27.89;33.17;102418.63;6238876;23;20012;-44
2022/07/05 08:02:55;;;;;;;0.77;0.40;;;;;;;27.75;33.63;102427.16;6246514;23;20008;-47
2022/07/05 08:05:23;;;;;;;1.48;0.30;;;;;;;27.56;33.69;102407.44;6219493;23;20000;-43
2022/07/05 08:07:52;;;;;;;0.40;0.30;;;;;;;27.72;33.70;102435.00;6246225;23;20000;-44
2022/07/05 08:10:19;;;;;;;1.02;0.30;;;;;;;27.80;33.54;102437.78;6246484;23;20343;-45
2022/07/05 08:12:47;;;;;;;0.22;0.17;;;;;;;27.81;33.27;102428.13;6246524;23;20000;-45
2022/07/05 08:15:16;;;;;;;0.35;0.20;;;;;;;27.89;33.03;102439.72;6246333;23;19996;-43
2022/07/05 08:21:30;;;;;;;0.38;0.25;;;;;;;27.96;32.85;102432.81;6246948;23;20000;-45
2022/07/05 08:23:18;;;;;;;0.90;0.30;;;;;;;27.85;32.84;102436.16;6229091;23;20000;-45
2022/07/05 08:25:46;;;;;;;0.20;0.10;;;;;;;27.82;32.57;102433.44;6245691;23;20008;-51
2022/07/05 08:28:15;;;;;;;1.10;0.40;;;;;;;27.79;32.81;102425.47;6245572;23;20371;-46
2022/07/05 08:30:42;;;;;;;1.17;0.20;;;;;;;27.86;32.27;102423.84;6245871;23;20427;-43
2022/07/05 08:33:11;;;;;;;0.60;0.20;;;;;;;27.77;32.90;102419.28;6246000;23;20004;-44
2022/07/05 08:35:39;;;;;;;0.85;0.50;;;;;;;27.85;32.61;102422.97;6245562;23;20016;-46
2022/07/05 08:38:07;;;;;;;0.20;0.20;;;;;;;27.93;32.31;102438.94;6245772;23;20011;-44
2022/07/05 08:40:39;;;;;;;0.60;0.30;;;;;;;27.90;32.56;102437.09;6245799;23;20015;-54
2022/07/05 08:43:08;;;;;;;0.32;0.20;;;;;;;27.95;32.46;102434.59;6243998;23;20020;-49
2022/07/05 08:45:37;;;;;;;3.03;2.00;;;;;;;27.86;32.41;102430.00;6244265;23;20004;-44
2022/07/05 08:48:06;;;;;;;8.32;4.68;;;;;;;27.91;32.27;102432.72;6218915;23;20004;-45
2022/07/05 08:50:37;;;;;;;6.90;3.42;;;;;;;27.94;32.24;102434.53;6244129;23;20004;-46
2022/07/05 08:53:06;;;;;;;2.20;1.60;;;;;;;27.91;32.09;102440.66;6219128;23;20013;-46
2022/07/05 08:55:35;;;;;;;3.30;1.90;;;;;;;27.90;32.24;102425.69;6245465;23;20027;-45
2022/07/05 08:58:04;;;;;;;1.33;1.10;;;;;;;27.90;32.19;102430.97;6245604;23;20000;-51
2022/07/05 09:00:32;;;;;;;2.58;1.10;;;;;;;27.89;32.20;102435.31;6245003;23;20040;-47
2022/07/05 09:03:01;;;;;;;2.08;0.70;;;;;;;27.90;31.91;102434.47;6245322;23;20000;-47
2022/07/05 09:05:30;;;;;;;2.35;0.88;;;;;;;27.95;31.90;102446.88;6244539;23;20008;-45
2022/07/05 09:08:03;;;;;;;3.40;0.73;;;;;;;28.01;32.42;102439.94;6219126;23;20004;-51
2022/07/05 09:10:33;;;;;;;0.80;0.52;;;;;;;28.04;32.12;102442.66;6244169;23;20023;-44
2022/07/05 09:13:02;;;;;;;3.83;0.55;;;;;;;27.91;32.05;102443.28;6244102;23;20031;-44
2022/07/05 09:15:31;;;;;;;1.25;0.40;;;;;;;27.98;31.76;102434.63;6245853;23;20004;-47
2022/07/05 09:17:59;;;;;;;1.30;0.30;;;;;;;27.99;31.50;102444.31;6245814;23;20447;-48
2022/07/05 09:20:29;;;;;;;2.72;0.28;;;;;;;27.80;31.54;102418.47;6245514;23;20083;-48
2022/07/05 09:22:57;;;;;;;3.60;0.30;;;;;;;27.92;31.56;102441.53;6219343;23;20089;-47
2022/07/05 09:25:28;;;;;;;0.80;0.22;;;;;;;27.85;31.78;102428.25;6219314;23;20043;-44
2022/07/05 09:27:59;;;;;;;0.98;0.20;;;;;;;27.89;31.72;102448.50;6219190;23;20000;-45
2022/07/05 09:30:30;;;;;;;1.25;0.45;;;;;;;27.91;31.79;102445.91;6245520;23;20008;-51
2022/07/05 09:38:21;;;;;;;1.00;0.30;;;;;;;27.70;31.81;102423.53;6126171;23;20512;-42
2022/07/05 09:40:50;;;;;;;0.60;0.30;;;;;;;27.66;32.09;102445.41;6220768;23;20335;-43
2022/07/05 09:43:21;;;;;;;1.27;0.45;;;;;;;27.52;32.01;102423.16;6247688;23;20011;-43
2022/07/05 09:46:00;;;;;;;1.63;0.50;;;;;;;27.57;32.15;102432.94;6247776;23;20004;-44
2022/07/05 09:48:30;;;;;;;0.30;0.20;;;;;;;27.57;32.05;102434.69;6247654;23;20000;-45
2022/07/05 09:51:08;;;;;;;0.47;0.20;;;;;;;27.79;31.95;102443.06;6247167;23;20004;-49
2022/07/05 09:53:56;;;;;;;0.98;0.30;;;;;;;27.82;31.72;102432.53;6247413;23;20012;-42
2022/07/05 09:56:29;;;;;;;4.40;1.02;;;;;;;27.83;31.81;102436.94;6247475;23;20327;-43
2022/07/05 09:58:57;;;;;;;2.70;0.40;;;;;;;27.79;31.89;102437.78;6246575;23;20330;-45
2022/07/05 10:01:27;;;;;;;2.97;0.43;;;;;;;27.82;31.83;102437.81;6221028;23;20004;-43
2022/07/05 10:03:57;;;;;;;1.58;0.28;;;;;;;27.70;32.17;102427.94;6247466;23;20007;-42
2022/07/05 10:06:27;;;;;;;1.55;0.20;;;;;;;27.68;32.11;102424.38;6247528;23;20035;-46
2022/07/05 10:08:56;;;;;;;1.55;0.47;;;;;;;27.66;32.22;102416.41;6247081;23;20012;-45
2022/07/05 10:11:25;;;;;;;3.03;0.40;;;;;;;27.64;31.92;102414.63;6247479;23;20008;-44
2022/07/05 10:13:54;;;;;;;0.90;0.30;;;;;;;27.62;32.03;102421.59;6247532;23;20001;-45
2022/07/05 10:16:24;;;;;;;0.82;0.15;;;;;;;27.67;31.73;102430.50;6247543;23;20312;-44
2022/07/05 10:18:56;;;;;;;4.55;1.05;;;;;;;27.62;31.99;102437.41;6246857;23;20083;-43
2022/07/05 10:21:27;;;;;;;1.95;0.60;;;;;;;27.63;32.07;102431.28;6247004;23;20481;-42
2022/07/05 10:23:55;;;;;;;1.65;0.75;;;;;;;27.56;32.21;102438.19;6247290;23;20161;-43
2022/07/05 10:26:25;;;;;;;1.50;0.40;;;;;;;27.68;31.80;102435.78;6245100;23;20011;-44
2022/07/05 10:28:55;;;;;;;0.88;0.40;;;;;;;27.69;31.85;102432.31;6247124;23;20001;-43
2022/07/05 10:31:25;;;;;;;1.23;0.40;;;;;;;27.56;32.17;102428.50;6246838;23;20004;-45
2022/07/05 10:33:54;;;;;;;1.30;0.40;;;;;;;27.61;32.13;102431.28;6220430;23;20035;-43
2022/07/05 10:36:24;;;;;;;3.03;0.40;;;;;;;27.67;31.71;102428.75;6245544;23;20011;-50
2022/07/05 10:38:53;;;;;;;1.27;0.32;;;;;;;27.57;32.31;102422.38;6220069;23;20016;-44
2022/07/05 10:41:25;;;;;;;3.97;0.60;;;;;;;27.61;32.58;102428.63;6247421;23;20004;-46
2022/07/05 10:43:55;;;;;;;8.43;1.20;;;;;;;27.59;32.86;102417.16;6245710;23;20004;-43
2022/07/05 10:46:43;;;;;;;4.53;0.60;;;;;;;27.69;32.78;102423.50;6220563;23;20083;-45
2022/07/05 10:49:13;;;;;;;1.73;0.50;;;;;;;27.62;32.69;102425.13;6247062;23;20011;-42
2022/07/05 10:51:41;;;;;;;3.75;0.98;;;;;;;27.55;32.47;102412.69;6245339;23;20000;-46
2022/07/05 10:54:10;;;;;;;2.35;0.50;;;;;;;27.56;32.25;102431.16;6220801;23;20378;-42
2022/07/05 10:56:39;;;;;;;1.67;0.47;;;;;;;27.60;32.46;102438.28;6247002;23;20004;-44
2022/07/05 10:59:11;;;;;;;1.42;0.43;;;;;;;27.60;32.26;102424.22;6246598;23;20062;-46
2022/07/05 11:01:40;;;;;;;1.73;0.38;;;;;;;27.62;32.49;102419.88;6220766;23;20008;-43
2022/07/05 11:04:14;;;;;;;2.78;0.52;;;;;;;27.49;32.90;102417.81;6246657;23;20339;-45
2022/07/05 11:06:46;;;;;;;1.80;0.35;;;;;;;27.56;32.45;102411.81;6246935;23;20431;-50
2022/07/05 11:09:14;;;;;;;1.67;0.40;;;;;;;27.58;32.97;102418.03;6246760;23;20008;-48
2022/07/05 11:12:02;;;;;;;4.47;0.60;;;;;;;27.62;32.68;102417.22;6247207;23;20015;-49
2022/07/05 11:14:32;;;;;;;4.53;0.52;;;;;;;27.64;32.76;102420.75;6219936;23;20543;-47
2022/07/05 11:17:11;;;;;;;0.93;0.40;;;;;;;27.77;32.45;102408.72;6246583;23;20504;-50
2022/07/05 11:19:58;;;;;;;1.75;0.28;;;;;;;27.68;32.89;102406.78;6246718;23;20030;-43
2022/07/05 11:22:27;;;;;;;0.82;0.50;;;;;;;27.72;32.93;102411.28;6236535;23;20004;-44
2022/07/05 11:24:57;;;;;;;3.08;0.30;;;;;;;27.72;32.96;102418.28;6246678;23;20331;-46
2022/07/05 11:27:26;;;;;;;2.38;0.45;;;;;;;27.57;32.88;102403.94;6245298;23;20008;-46
2022/07/05 11:29:56;;;;;;;1.40;0.55;;;;;;;27.64;32.32;102406.69;6219581;23;20012;-50
2022/07/05 11:32:37;;;;;;;0.93;0.30;;;;;;;27.59;32.49;102410.13;6246972;23;20091;-43
2022/07/05 11:35:24;;;;;;;0.85;0.30;;;;;;;27.64;32.49;102411.97;6246514;23;20418;-42
2022/07/05 11:38:06;;;;;;;0.40;0.30;;;;;;;27.63;32.38;102412.84;6244726;23;20024;-45
2022/07/05 11:40:37;;;;;;;1.05;0.40;;;;;;;27.68;32.37;102411.19;6246904;23;20008;-42
2022/07/05 11:43:07;;;;;;;0.98;0.30;;;;;;;27.67;32.41;102407.66;6246732;23;20054;-45
2022/07/05 11:45:38;;;;;;;0.93;0.32;;;;;;;27.64;31.89;102397.03;6246358;23;20316;-45